createdAt,value
2023-04-16T00:00:49.692Z,100.00
2023-04-16T00:03:17.665Z,100.00
2023-04-16T00:05:45.869Z,100.00
2023-04-16T00:08:13.752Z,100.00
2023-04-16T00:10:41.699Z,100.00
2023-04-16T00:13:09.520Z,100.00
2023-04-16T00:15:37.597Z,100.00
2023-04-16T00:18:05.590Z,100.00
2023-04-16T00:20:33.389Z,100.00
2023-04-16T00:23:01.240Z,100.00
2023-04-16T00:25:29.158Z,100.00
2023-04-16T00:27:57.035Z,100.00
2023-04-16T00:30:24.902Z,100.00
2023-04-16T00:32:52.764Z,100.00
2023-04-16T00:35:20.711Z,100.00
2023-04-16T00:37:48.710Z,100.00
2023-04-16T00:40:16.657Z,100.00
2023-04-16T00:42:45.744Z,100.00
2023-04-16T00:45:13.676Z,100.00
2023-04-16T00:47:41.496Z,100.00
2023-04-16T00:50:10.576Z,100.00
2023-04-16T00:52:40.081Z,100.00
2023-04-16T00:55:08.437Z,100.00
2023-04-16T00:57:36.273Z,100.00
2023-04-16T01:00:04.440Z,100.00
2023-04-16T01:02:34.176Z,100.00
2023-04-16T01:05:05.570Z,100.00
2023-04-16T01:07:33.480Z,100.00
2023-04-16T01:10:01.366Z,100.00
2023-04-16T01:12:29.189Z,100.00
2023-04-16T01:14:57.529Z,100.00
2023-04-16T01:17:25.481Z,100.00
2023-04-16T01:19:53.364Z,100.00
2023-04-16T01:22:21.286Z,100.00
2023-04-16T01:24:49.155Z,100.00
2023-04-16T01:27:16.976Z,100.00
2023-04-16T01:29:44.784Z,100.00
2023-04-16T01:32:14.381Z,100.00
2023-04-16T01:34:44.180Z,100.00
2023-04-16T01:37:12.443Z,100.00
2023-04-16T01:39:40.515Z,100.00
2023-04-16T01:42:09.433Z,100.00
2023-04-16T01:44:37.327Z,100.00
2023-04-16T01:47:05.303Z,100.00
2023-04-16T01:49:33.936Z,100.00
2023-04-16T01:52:01.779Z,100.00
2023-04-16T01:54:29.687Z,100.00
2023-04-16T01:56:57.636Z,100.00
2023-04-16T01:59:25.757Z,100.00
2023-04-16T02:01:54.406Z,100.00
2023-04-16T02:04:22.578Z,100.00
2023-04-16T02:06:50.616Z,100.00
2023-04-16T02:09:18.659Z,100.00
2023-04-16T02:11:46.892Z,100.00
2023-04-16T02:14:16.143Z,100.00
2023-04-16T02:16:44.221Z,100.00
2023-04-16T02:19:18.810Z,100.00
2023-04-16T02:21:46.933Z,100.00
2023-04-16T02:24:15.032Z,100.00
2023-04-16T02:26:43.529Z,100.00
2023-04-16T02:29:16.579Z,100.00
2023-04-16T02:31:49.872Z,100.00
2023-04-16T02:34:18.116Z,100.00
2023-04-16T02:36:46.087Z,100.00
2023-04-16T02:39:13.980Z,100.00
2023-04-16T02:41:41.947Z,100.00
2023-04-16T02:44:10.029Z,100.00
2023-04-16T02:46:37.872Z,100.00
2023-04-16T02:49:05.689Z,100.00
2023-04-16T02:51:33.608Z,100.00
2023-04-16T02:54:03.034Z,100.00
2023-04-16T02:56:31.751Z,100.00
2023-04-16T02:58:59.725Z,100.00
2023-04-16T03:01:29.005Z,100.00
2023-04-16T03:03:57.099Z,100.00
2023-04-16T03:06:25.012Z,100.00
2023-04-16T03:08:52.902Z,100.00
2023-04-16T03:11:20.708Z,100.00
2023-04-16T03:13:48.550Z,100.00
2023-04-16T03:16:16.610Z,100.00
2023-04-16T03:18:44.904Z,100.00
2023-04-16T03:21:12.745Z,100.00
2023-04-16T03:23:40.762Z,100.00
2023-04-16T03:26:08.596Z,100.00
2023-04-16T03:28:36.490Z,100.00
2023-04-16T03:31:04.783Z,100.00
2023-04-16T03:33:32.727Z,100.00
2023-04-16T03:36:00.932Z,100.00
2023-04-16T03:38:31.882Z,100.00
2023-04-16T03:41:00.580Z,100.00
2023-04-16T03:43:31.404Z,100.00
2023-04-16T03:45:59.320Z,100.00
2023-04-16T03:48:27.221Z,100.00
2023-04-16T03:50:55.536Z,100.00
2023-04-16T03:53:23.629Z,100.00
2023-04-16T03:55:52.331Z,100.00
2023-04-16T03:58:21.279Z,100.00
2023-04-16T04:00:49.168Z,100.00
2023-04-16T04:03:18.710Z,100.00
2023-04-16T04:05:49.491Z,100.00
2023-04-16T04:08:24.552Z,100.00
2023-04-16T04:10:53.099Z,100.00
2023-04-16T04:13:23.315Z,100.00
2023-04-16T04:15:52.680Z,100.00
2023-04-16T04:18:21.966Z,100.00
2023-04-16T04:20:50.001Z,100.00
2023-04-16T04:23:20.685Z,100.00
2023-04-16T04:25:49.299Z,100.00
2023-04-16T04:28:17.180Z,100.00
2023-04-16T04:30:45.257Z,100.00
2023-04-16T04:33:13.706Z,100.00
2023-04-16T04:35:42.430Z,100.00
2023-04-16T04:38:10.407Z,100.00
2023-04-16T04:40:38.336Z,100.00
2023-04-16T04:43:06.967Z,100.00
2023-04-16T04:45:34.872Z,100.00
2023-04-16T04:48:02.831Z,100.00
2023-04-16T04:50:31.312Z,100.00
2023-04-16T04:52:59.440Z,100.00
2023-04-16T04:55:27.924Z,100.00
2023-04-16T04:57:55.847Z,100.00
2023-04-16T05:00:23.779Z,100.00
2023-04-16T05:02:55.353Z,100.00
2023-04-16T05:05:23.342Z,100.00
2023-04-16T05:07:51.269Z,100.00
2023-04-16T05:10:19.180Z,100.00
2023-04-16T05:12:50.748Z,100.00
2023-04-16T05:15:18.624Z,100.00
2023-04-16T05:17:46.564Z,100.00
2023-04-16T05:20:14.595Z,100.00
2023-04-16T05:22:42.549Z,100.00
2023-04-16T05:25:10.496Z,100.00
2023-04-16T05:27:38.691Z,100.00
2023-04-16T05:30:07.242Z,100.00
2023-04-16T05:32:35.657Z,100.00
2023-04-16T05:35:03.577Z,100.00
2023-04-16T05:37:31.659Z,100.00
2023-04-16T05:39:59.527Z,100.00
2023-04-16T05:42:27.367Z,100.00
2023-04-16T05:44:55.525Z,100.00
2023-04-16T05:47:24.329Z,100.00
2023-04-16T05:49:52.215Z,100.00
2023-04-16T05:52:20.258Z,100.00
2023-04-16T05:54:48.072Z,100.00
2023-04-16T05:57:16.015Z,100.00
2023-04-16T05:59:44.119Z,100.00
2023-04-16T06:02:12.406Z,100.00
2023-04-16T06:04:40.397Z,100.00
2023-04-16T06:07:08.313Z,100.00
2023-04-16T06:09:36.196Z,100.00
2023-04-16T06:12:04.289Z,100.00
2023-04-16T06:14:32.305Z,100.00
2023-04-16T06:17:00.587Z,100.00
2023-04-16T06:19:28.460Z,100.00
2023-04-16T06:21:57.914Z,100.00
2023-04-16T06:24:25.984Z,100.00
2023-04-16T06:26:54.707Z,100.00
2023-04-16T06:29:27.936Z,100.00
2023-04-16T06:32:02.131Z,100.00
2023-04-16T06:34:30.011Z,100.00
2023-04-16T06:36:57.857Z,100.00
2023-04-16T06:39:25.928Z,100.00
2023-04-16T06:41:53.802Z,100.00
2023-04-16T06:44:21.715Z,100.00
2023-04-16T06:46:51.066Z,100.00
2023-04-16T06:49:19.028Z,100.00
2023-04-16T06:51:46.936Z,100.00
2023-04-16T06:54:14.836Z,100.00
2023-04-16T06:56:42.766Z,100.00
2023-04-16T06:59:11.152Z,100.00
2023-04-16T07:01:39.206Z,100.00
2023-04-16T07:04:07.335Z,100.00
2023-04-16T07:06:35.287Z,100.00
2023-04-16T07:09:03.345Z,100.00
2023-04-16T07:11:31.478Z,100.00
2023-04-16T07:13:59.372Z,100.00
2023-04-16T07:16:27.361Z,100.00
2023-04-16T07:18:55.254Z,100.00
2023-04-16T07:21:23.156Z,100.00
2023-04-16T07:23:51.016Z,100.00
2023-04-16T07:26:18.900Z,100.00
2023-04-16T07:28:46.861Z,100.00
2023-04-16T07:31:14.784Z,100.00
2023-04-16T07:33:42.691Z,100.00
2023-04-16T07:36:11.074Z,100.00
2023-04-16T07:38:38.941Z,100.00
2023-04-16T07:41:06.803Z,100.00
2023-04-16T07:43:35.040Z,100.00
2023-04-16T07:46:03.118Z,100.00
2023-04-16T07:48:31.041Z,100.00
2023-04-16T07:51:04.084Z,100.00
2023-04-16T07:53:31.993Z,100.00
2023-04-16T07:55:59.888Z,100.00
2023-04-16T07:58:27.793Z,100.00
2023-04-16T08:00:55.944Z,100.00
2023-04-16T08:03:24.351Z,100.00
2023-04-16T08:05:52.665Z,100.00
2023-04-16T08:08:20.668Z,100.00
2023-04-16T08:10:48.660Z,100.00
2023-04-16T08:13:16.544Z,100.00
2023-04-16T08:15:44.440Z,100.00
2023-04-16T08:18:15.612Z,100.00
2023-04-16T08:20:43.590Z,100.00
2023-04-16T08:23:11.474Z,100.00
2023-04-16T08:25:39.338Z,100.00
2023-04-16T08:28:07.276Z,100.00
2023-04-16T08:30:35.264Z,100.00
2023-04-16T08:33:03.252Z,100.00
2023-04-16T08:35:31.102Z,100.00
2023-04-16T08:38:02.184Z,100.00
2023-04-16T08:40:31.683Z,100.00
2023-04-16T08:43:03.215Z,100.00
2023-04-16T08:45:35.205Z,100.00
2023-04-16T08:48:05.568Z,100.00
2023-04-16T08:50:34.972Z,100.00
2023-04-16T08:53:07.005Z,100.00
2023-04-16T08:55:40.310Z,100.00
2023-04-16T08:58:35.740Z,100.00
2023-04-16T09:01:04.210Z,100.00
2023-04-16T09:03:35.611Z,100.00
2023-04-16T09:06:04.820Z,100.00
2023-04-16T09:08:32.831Z,100.00
2023-04-16T09:11:00.713Z,100.00
2023-04-16T09:13:28.634Z,100.00
2023-04-16T09:15:57.497Z,100.00
2023-04-16T09:18:25.773Z,100.00
2023-04-16T09:20:53.724Z,100.00
2023-04-16T09:23:21.607Z,100.00
2023-04-16T09:25:49.449Z,100.00
2023-04-16T09:28:41.311Z,100.00
2023-04-16T09:31:19.508Z,100.00
2023-04-16T09:34:05.556Z,100.00
2023-04-16T09:36:34.542Z,100.00
2023-04-16T09:39:03.782Z,100.00
2023-04-16T09:41:35.896Z,100.00
2023-04-16T09:44:05.430Z,100.00
2023-04-16T09:46:52.086Z,100.00
2023-04-16T09:49:19.955Z,100.00
2023-04-16T09:51:50.977Z,100.00
2023-04-16T09:54:19.888Z,100.00
2023-04-16T09:56:47.763Z,100.00
2023-04-16T09:59:23.395Z,100.00
2023-04-16T10:01:53.458Z,100.00
2023-04-16T18:37:27.194Z,94.16
2023-04-16T18:39:57.766Z,94.13
2023-04-16T18:42:28.106Z,94.75
2023-04-16T18:44:56.149Z,95.33
2023-04-16T18:47:24.091Z,94.74
2023-04-16T18:49:51.963Z,95.59
2023-04-16T18:52:19.832Z,95.71
2023-04-16T18:54:47.810Z,96.09
2023-04-16T18:57:15.996Z,96.74
2023-04-16T18:59:43.840Z,96.23
2023-04-16T19:02:11.751Z,96.71
2023-04-16T19:04:39.712Z,96.70
2023-04-16T19:07:07.676Z,96.23
2023-04-16T19:09:35.725Z,96.84
2023-04-16T19:12:03.741Z,96.77
2023-04-16T19:14:31.612Z,96.11
2023-04-16T19:16:59.427Z,95.59
2023-04-16T19:19:27.304Z,95.67
2023-04-16T19:21:55.242Z,96.31
2023-04-16T19:24:23.578Z,95.65
2023-04-16T19:26:51.447Z,95.46
2023-04-16T19:29:19.290Z,95.95
2023-04-16T19:31:47.256Z,97.01
2023-04-16T19:34:15.818Z,97.51
2023-04-16T19:36:45.011Z,96.83
2023-04-16T19:39:13.008Z,96.87
2023-04-16T19:41:40.999Z,97.36
2023-04-16T19:44:09.136Z,97.40
2023-04-16T19:46:37.266Z,97.54
2023-04-16T19:49:05.303Z,96.54
2023-04-16T19:51:33.250Z,96.84
2023-04-16T19:54:01.699Z,96.77
2023-04-16T19:56:29.607Z,96.73
2023-04-16T19:58:57.633Z,96.44
2023-04-16T20:01:26.116Z,96.87
2023-04-16T20:03:54.653Z,97.11
2023-04-16T20:06:22.529Z,97.48
2023-04-16T20:08:50.528Z,97.45
2023-04-16T20:11:18.498Z,97.28
2023-04-16T20:13:47.501Z,97.41
2023-04-16T20:16:15.527Z,97.15
2023-04-16T20:18:43.479Z,96.98
2023-04-16T20:21:11.592Z,96.75
2023-04-16T20:23:39.471Z,97.02
2023-04-16T20:26:07.480Z,97.59
2023-04-16T20:28:35.306Z,97.76
2023-04-16T20:31:03.403Z,98.05
2023-04-16T20:33:31.281Z,98.11
2023-04-16T20:35:59.174Z,97.75
2023-04-16T20:38:29.631Z,97.89
2023-04-16T20:41:10.042Z,98.05
2023-04-16T20:43:40.858Z,97.55
2023-04-16T20:46:08.910Z,97.24
2023-04-16T20:48:38.521Z,97.18
2023-04-16T20:51:07.789Z,97.11
2023-04-16T20:53:38.688Z,97.22
2023-04-16T20:56:08.263Z,98.04
2023-04-16T20:58:36.311Z,97.35
2023-04-16T21:01:05.900Z,97.49
2023-04-16T21:03:33.884Z,97.81
2023-04-16T21:06:02.333Z,97.69
2023-04-16T21:08:30.339Z,97.07
2023-04-16T21:10:58.260Z,97.66
2023-04-16T21:13:26.197Z,98.36
2023-04-16T21:15:54.113Z,98.19
2023-04-16T21:18:22.072Z,97.90
2023-04-16T21:20:49.922Z,97.57
2023-04-16T21:23:17.767Z,98.35
2023-04-16T21:25:45.759Z,98.17
2023-04-16T21:28:13.594Z,97.68
2023-04-16T21:30:41.878Z,97.35
2023-04-16T21:33:11.859Z,97.36
2023-04-16T21:35:39.706Z,97.53
2023-04-16T21:38:07.579Z,97.55
2023-04-16T21:40:35.407Z,98.08
2023-04-16T21:43:03.333Z,97.97
2023-04-16T21:45:31.240Z,98.32
2023-04-16T21:47:59.292Z,98.36
2023-04-16T21:50:27.110Z,98.70
2023-04-16T21:52:54.911Z,98.58
2023-04-16T21:55:22.922Z,98.55
2023-04-16T21:57:50.804Z,98.77
2023-04-16T22:00:18.865Z,98.99
2023-04-16T22:02:46.963Z,99.46
2023-04-16T22:05:15.185Z,99.58
2023-04-16T22:07:43.170Z,99.33
2023-04-16T22:10:13.590Z,99.29
2023-04-16T22:12:45.126Z,98.40
2023-04-16T22:15:14.119Z,98.21
2023-04-16T22:17:42.305Z,98.08
2023-04-16T22:20:12.975Z,98.94
2023-04-16T22:22:42.135Z,98.49
2023-04-16T22:25:11.326Z,99.17
2023-04-16T22:27:39.152Z,99.17
2023-04-16T22:30:08.366Z,99.10
2023-04-16T22:32:36.395Z,98.50
2023-04-16T22:35:04.519Z,99.00
2023-04-16T22:37:33.547Z,99.04
2023-04-16T22:40:01.563Z,98.98
2023-04-16T22:42:29.430Z,98.72
2023-04-16T22:44:57.446Z,98.90
2023-04-16T22:47:25.318Z,99.00
2023-04-16T22:49:53.788Z,99.49
2023-04-16T22:52:21.605Z,98.85
2023-04-16T22:54:49.672Z,99.18
2023-04-16T22:57:21.056Z,98.92
2023-04-16T22:59:49.007Z,98.84
2023-04-16T23:02:17.408Z,98.63
2023-04-16T23:04:46.480Z,98.68
2023-04-16T23:07:16.275Z,99.05
2023-04-16T23:09:44.224Z,98.51
2023-04-16T23:12:12.093Z,98.26
2023-04-16T23:14:46.127Z,97.54
2023-04-16T23:17:14.012Z,97.87
2023-04-16T23:19:41.948Z,97.97
2023-04-16T23:22:10.038Z,97.95
2023-04-16T23:24:37.920Z,98.29
2023-04-16T23:27:05.796Z,97.59
2023-04-16T23:29:33.651Z,97.04
2023-04-16T23:32:01.578Z,96.81
2023-04-16T23:34:29.628Z,96.42
2023-04-16T23:36:57.525Z,96.73
2023-04-16T23:39:25.375Z,97.46
2023-04-16T23:41:53.466Z,97.53
2023-04-16T23:44:21.263Z,96.95
2023-04-16T23:46:49.141Z,96.84
2023-04-16T23:49:17.077Z,96.33
2023-04-16T23:51:44.946Z,95.90
2023-04-16T23:54:12.775Z,95.90
2023-04-16T23:56:41.419Z,96.81
2023-04-16T23:59:12.757Z,97.02
